Fallsvale, California
Current Conditions -  °F | °C
As of 3:55 AM on Friday 31 Oct 2014 (Local Time) from KL35 Reporting Station
Clear Clear  
Wind Chill: 32°   Ceiling: Unl
Heat Index: 32°   Visibility: 10mi
Dew Point: 18°   Wind: 0mph
Humidity: 55%   Direction: NA
Pressure: 30.13"   Gusts: NA
Location:  34.0725°N, 116.883°W
Report Text: KL35 311055Z AUTO 00000KT 10SM CLR 00/M08 A3013 RMK AO2
Loading
Personal Weather Stations






























Interactive Weather Map
Tropical Storm Tracking
New forecast layout! Learn more

10-Day Weather Forecast

Advertisements
Track Severe Weather on mobile